createdAt,value
2022-11-23T00:00:33.639Z,70.24
2022-11-23T00:03:09.329Z,69.95
2022-11-23T00:05:43.326Z,70.09
2022-11-23T00:08:15.532Z,69.81
2022-11-23T00:10:47.518Z,69.68
2022-11-23T00:13:15.663Z,69.64
2022-11-23T00:15:51.135Z,69.92
2022-11-23T00:18:22.353Z,69.86
2022-11-23T00:20:52.803Z,69.70
2022-11-23T00:23:20.642Z,69.63
2022-11-23T00:25:48.567Z,69.51
2022-11-23T00:28:16.362Z,69.30
2022-11-23T00:30:51.146Z,68.89
2022-11-23T00:33:19.509Z,68.89
2022-11-23T00:35:47.555Z,68.88
2022-11-23T00:38:18.292Z,68.59
2022-11-23T00:40:46.239Z,68.51
2022-11-23T00:43:14.444Z,68.62
2022-11-23T00:45:42.608Z,68.67
2022-11-23T00:48:12.209Z,69.25
2022-11-23T00:50:41.246Z,68.56
2022-11-23T00:53:44.680Z,68.58
2022-11-23T00:56:14.094Z,68.70
2022-11-23T00:59:07.951Z,68.67
2022-11-23T01:01:47.987Z,68.76
2022-11-23T01:04:23.561Z,68.60
2022-11-23T01:06:57.432Z,68.94
2022-11-23T01:09:27.012Z,68.58
2022-11-23T01:11:55.697Z,68.69
2022-11-23T01:14:25.483Z,68.78
2022-11-23T01:16:53.582Z,68.51
2022-11-23T01:19:22.923Z,68.51
2022-11-23T01:21:51.504Z,68.43
2022-11-23T01:24:22.406Z,68.26
2022-11-23T01:26:52.570Z,68.32
2022-11-23T01:29:22.000Z,68.19
2022-11-23T01:31:50.422Z,68.13
2022-11-23T01:34:18.788Z,68.32
2022-11-23T01:36:48.819Z,68.37
2022-11-23T01:39:16.995Z,68.25
2022-11-23T01:41:47.078Z,68.34
2022-11-23T01:44:28.781Z,68.25
2022-11-23T01:47:00.670Z,68.27
2022-11-23T01:49:36.791Z,68.37
2022-11-23T01:52:10.363Z,68.40
2022-11-23T01:54:45.461Z,68.41
2022-11-23T01:57:21.175Z,68.40
2022-11-23T01:59:51.387Z,68.40
2022-11-23T02:02:19.890Z,68.30
2022-11-23T02:04:52.566Z,68.22
2022-11-23T02:07:27.794Z,68.42
2022-11-23T02:09:56.220Z,68.24
2022-11-23T02:12:24.400Z,68.28
2022-11-23T02:14:52.843Z,68.16
2022-11-23T02:17:22.077Z,68.22
2022-11-23T02:20:04.849Z,68.06
2022-11-23T02:22:45.845Z,68.26
2022-11-23T02:25:24.034Z,68.27
2022-11-23T02:27:55.986Z,67.90
2022-11-23T02:30:25.143Z,68.14
2022-11-23T02:32:56.354Z,68.04
2022-11-23T02:35:26.640Z,67.96
2022-11-23T02:37:55.728Z,67.97
2022-11-23T02:40:30.485Z,68.23
2022-11-23T02:43:02.700Z,68.32
2022-11-23T02:45:39.047Z,67.95
2022-11-23T02:48:11.062Z,67.90
2022-11-23T02:50:41.600Z,67.69
2022-11-23T02:53:11.251Z,67.84
2022-11-23T02:55:39.959Z,67.85
2022-11-23T02:58:12.723Z,67.71
2022-11-23T03:00:41.035Z,67.82
2022-11-23T03:03:09.207Z,67.46
2022-11-23T03:05:37.198Z,67.59
2022-11-23T03:08:07.351Z,67.84
2022-11-23T03:10:35.792Z,67.42
2022-11-23T03:13:03.792Z,67.26
2022-11-23T03:15:37.937Z,67.31
2022-11-23T03:18:07.803Z,67.16
2022-11-23T03:20:36.577Z,67.21
2022-11-23T03:23:06.006Z,67.40
2022-11-23T03:25:34.662Z,67.30
2022-11-23T03:28:05.164Z,67.27
2022-11-23T03:30:35.011Z,67.26
2022-11-23T03:33:07.680Z,67.07
2022-11-23T03:35:37.985Z,67.18
2022-11-23T03:38:24.487Z,67.05
2022-11-23T03:40:54.122Z,67.59
2022-11-23T03:43:27.546Z,67.57
2022-11-23T03:45:55.824Z,67.78
2022-11-23T03:48:28.270Z,67.91
2022-11-23T03:50:59.224Z,68.17
2022-11-23T03:53:27.856Z,68.12
2022-11-23T03:55:59.157Z,68.01
2022-11-23T03:58:30.708Z,67.92
2022-11-23T04:00:59.559Z,67.99
2022-11-23T04:03:29.691Z,67.98
2022-11-23T04:06:16.259Z,67.73
2022-11-23T04:09:01.989Z,67.96
2022-11-23T04:11:41.752Z,68.06
2022-11-23T04:14:09.644Z,68.00
2022-11-23T04:16:48.532Z,68.16
2022-11-23T04:19:44.809Z,68.47
2022-11-23T04:22:14.298Z,68.28
2022-11-23T04:24:44.036Z,68.17
2022-11-23T04:27:12.344Z,68.34
2022-11-23T04:29:41.163Z,68.08
2022-11-23T04:32:12.171Z,67.90
2022-11-23T04:34:45.289Z,67.75
2022-11-23T04:37:14.893Z,67.75
2022-11-23T04:39:45.828Z,67.76
2022-11-23T04:43:01.607Z,67.60
2022-11-23T04:45:42.826Z,67.61
2022-11-23T04:48:38.019Z,67.54
2022-11-23T04:51:08.671Z,67.64
2022-11-23T04:53:41.754Z,67.57
2022-11-23T04:56:12.559Z,67.51
2022-11-23T04:58:42.205Z,67.63
2022-11-23T05:01:10.787Z,67.64
2022-11-23T05:03:59.314Z,67.67
2022-11-23T05:06:32.633Z,67.78
2022-11-23T05:09:01.556Z,67.24
2022-11-23T05:11:42.023Z,67.36
2022-11-23T05:14:14.917Z,67.25
2022-11-23T05:16:45.929Z,67.35
2022-11-23T05:19:17.553Z,67.55
2022-11-23T05:22:13.176Z,67.86
2022-11-23T05:25:17.412Z,67.23
2022-11-23T05:39:43.916Z,68.03
2022-11-23T05:42:12.212Z,68.33
2022-11-23T05:44:43.490Z,67.73
2022-11-23T05:47:21.768Z,68.60
2022-11-23T05:49:51.079Z,68.11
2022-11-23T05:52:23.248Z,68.16
2022-11-23T05:55:11.343Z,68.48
2022-11-23T05:58:02.234Z,68.48
2022-11-23T06:06:38.368Z,68.60
2022-11-23T06:13:36.138Z,68.56
2022-11-23T06:16:30.655Z,68.51
2022-11-23T06:19:07.747Z,68.74
2022-11-23T06:21:48.969Z,68.97
2022-11-23T06:24:24.186Z,69.13
2022-11-23T06:27:18.838Z,69.08
2022-11-23T06:29:52.540Z,69.41
2022-11-23T06:32:25.568Z,68.98
2022-11-23T06:35:00.631Z,69.18
2022-11-23T06:37:32.336Z,69.02
2022-11-23T06:40:02.456Z,68.94
2022-11-23T06:42:39.807Z,69.13
2022-11-23T06:45:19.031Z,68.92
2022-11-23T06:47:50.093Z,68.82
2022-11-23T06:50:18.767Z,68.77
2022-11-23T06:52:49.102Z,68.70
2022-11-23T06:55:19.505Z,68.60
2022-11-23T06:57:47.839Z,68.50
2022-11-23T07:00:17.054Z,68.34
2022-11-23T07:02:51.990Z,68.30
2022-11-23T07:05:25.996Z,67.99
2022-11-23T07:07:55.461Z,67.95
2022-11-23T07:10:27.900Z,67.96
2022-11-23T07:13:10.493Z,67.93
2022-11-23T07:15:39.338Z,67.75
2022-11-23T07:18:16.037Z,68.33
2022-11-23T07:21:18.603Z,67.84
2022-11-23T07:23:47.604Z,67.71
2022-11-23T07:26:16.119Z,67.71
2022-11-23T07:28:44.567Z,67.77
2022-11-23T07:31:15.996Z,67.49
2022-11-23T07:33:45.391Z,67.96
2022-11-23T07:36:14.485Z,67.49
2022-11-23T07:38:45.651Z,67.57
2022-11-23T07:41:16.258Z,67.57
2022-11-23T07:44:13.568Z,67.38
2022-11-23T07:46:44.275Z,66.86
2022-11-23T07:49:16.185Z,66.43
2022-11-23T07:52:26.409Z,66.08
2022-11-23T07:55:29.057Z,66.31
2022-11-23T07:58:01.541Z,65.48
2022-11-23T08:01:11.833Z,64.73
2022-11-23T08:18:10.044Z,62.53
2022-11-23T08:20:39.124Z,61.96
2022-11-23T08:23:06.898Z,62.02
2022-11-23T08:25:34.968Z,61.48
2022-11-23T08:28:06.059Z,60.77
2022-11-23T08:30:35.086Z,60.53
2022-11-23T08:33:04.662Z,59.21
2022-11-23T08:35:34.611Z,57.14
2022-11-23T08:38:02.703Z,55.47
2022-11-23T08:40:30.613Z,52.85
2022-11-23T08:42:58.702Z,50.09
2022-11-23T08:45:28.229Z,49.00
2022-11-23T08:48:00.891Z,45.73
2022-11-23T08:50:29.670Z,43.29
2022-11-23T08:52:57.764Z,42.56
2022-11-23T08:55:25.634Z,43.82
2022-11-23T08:57:56.321Z,45.13
2022-11-23T09:00:24.528Z,45.58
2022-11-23T09:03:20.117Z,45.24
2022-11-23T09:05:48.570Z,44.56
2022-11-23T09:08:16.802Z,45.64
2022-11-23T09:10:45.192Z,46.90
2022-11-23T09:13:13.431Z,48.97
2022-11-23T09:15:41.386Z,50.35
2022-11-23T09:18:11.480Z,51.44
2022-11-23T09:20:40.819Z,52.68
2022-11-23T09:23:14.046Z,52.23
2022-11-23T09:25:43.283Z,49.81
2022-11-23T09:28:12.637Z,49.02
2022-11-23T09:30:40.782Z,49.64
2022-11-23T09:33:10.288Z,51.03
2022-11-23T09:35:43.464Z,49.28
2022-11-23T09:38:12.053Z,49.01
2022-11-23T09:40:42.043Z,49.38
2022-11-23T09:43:30.427Z,48.12
2022-11-23T09:46:06.623Z,48.43
2022-11-23T09:48:51.930Z,49.59
2022-11-23T09:51:23.012Z,50.36
2022-11-23T09:53:55.019Z,51.98
2022-11-23T09:56:27.477Z,49.92
2022-11-23T09:58:57.575Z,49.78
2022-11-23T10:01:27.762Z,50.64
2022-11-23T10:03:58.867Z,51.63
2022-11-23T10:06:29.127Z,52.33
2022-11-23T10:09:07.776Z,52.04
2022-11-23T10:12:04.627Z,53.43
2022-11-23T10:14:49.387Z,54.39
2022-11-23T10:17:27.911Z,55.55
2022-11-23T10:20:17.417Z,55.38
2022-11-23T10:22:53.574Z,55.12
2022-11-23T10:25:28.473Z,54.48
2022-11-23T10:28:36.324Z,54.78
2022-11-23T10:35:53.596Z,55.16
2022-11-23T10:39:29.113Z,53.66
2022-11-23T10:43:02.731Z,53.96
2022-11-23T10:45:31.336Z,54.27
2022-11-23T10:51:46.044Z,53.42
2022-11-23T10:55:14.000Z,53.96
2022-11-23T10:58:06.566Z,52.41
2022-11-23T11:21:25.902Z,46.15
2022-11-23T11:32:36.980Z,50.09
2022-11-23T11:36:06.488Z,51.30
2022-11-23T11:39:18.492Z,51.29
2022-11-23T11:42:26.588Z,51.50
2022-11-23T11:52:30.886Z,51.05
2022-11-23T11:55:06.386Z,50.72
2022-11-23T11:58:07.971Z,51.95
2022-11-23T12:00:43.540Z,52.59
2022-11-23T12:03:55.371Z,51.53
2022-11-23T12:09:50.936Z,52.33
2022-11-23T12:12:29.634Z,52.08
2022-11-23T12:14:59.039Z,52.23
2022-11-23T12:17:51.888Z,51.33
2022-11-23T12:20:28.823Z,51.55
2022-11-23T12:23:10.501Z,50.95
2022-11-23T12:25:42.490Z,49.93
2022-11-23T12:28:36.042Z,50.39
2022-11-23T12:31:17.993Z,50.66
2022-11-23T12:34:00.448Z,49.14
2022-11-23T12:37:01.025Z,48.75
2022-11-23T12:39:49.737Z,49.53
2022-11-23T12:42:25.988Z,49.17
2022-11-23T12:45:07.187Z,49.76
2022-11-23T12:47:49.784Z,47.84
2022-11-23T12:50:28.223Z,49.18
2022-11-23T12:53:07.653Z,48.49
2022-11-23T12:55:48.293Z,48.58
2022-11-23T12:58:23.516Z,48.40
2022-11-23T13:00:58.184Z,48.66
2022-11-23T13:03:48.200Z,48.84
2022-11-23T13:06:38.859Z,49.62
2022-11-23T13:09:52.896Z,49.77
2022-11-23T13:12:35.515Z,49.62
2022-11-23T13:15:20.037Z,49.97
2022-11-23T13:17:57.395Z,50.89
2022-11-23T13:20:43.524Z,50.89
2022-11-23T13:23:12.031Z,50.63
2022-11-23T13:25:41.749Z,51.00
2022-11-23T13:28:31.774Z,50.64
2022-11-23T13:31:23.677Z,51.23
2022-11-23T13:33:55.403Z,52.38
2022-11-23T13:37:15.540Z,52.83
2022-11-23T13:40:08.423Z,53.31
2022-11-23T13:42:38.348Z,54.13
2022-11-23T13:45:28.366Z,54.10
2022-11-23T13:48:55.038Z,54.33
2022-11-23T13:51:12.223Z,54.32
2022-11-23T13:57:01.320Z,54.49
2022-11-23T14:00:15.625Z,54.96
2022-11-23T14:03:19.304Z,54.74
2022-11-23T14:06:06.764Z,54.40
2022-11-23T14:08:57.154Z,54.89
2022-11-23T14:19:16.930Z,53.59
2022-11-23T14:25:46.950Z,54.88
2022-11-23T14:28:28.745Z,54.86
2022-11-23T14:31:20.360Z,55.09
2022-11-23T14:34:30.335Z,55.17
2022-11-23T14:37:04.867Z,55.62
2022-11-23T14:40:17.192Z,55.59
2022-11-23T14:43:35.293Z,55.28
2022-11-23T14:46:06.938Z,55.34
2022-11-23T14:48:36.870Z,55.79
2022-11-23T14:54:44.625Z,56.26
2022-11-23T15:01:30.194Z,56.05
2022-11-23T15:04:01.847Z,56.68
2022-11-23T15:06:34.518Z,56.13
2022-11-23T15:09:39.991Z,55.86
2022-11-23T15:12:31.043Z,56.64
2022-11-23T15:15:21.830Z,56.42
2022-11-23T15:18:01.816Z,56.26
2022-11-23T15:24:32.165Z,56.38
2022-11-23T15:27:12.926Z,56.47
2022-11-23T15:29:41.358Z,57.09
2022-11-23T15:32:33.904Z,56.32
2022-11-23T15:35:50.798Z,56.57
2022-11-23T15:38:27.070Z,56.92
2022-11-23T15:41:05.992Z,56.94
2022-11-23T15:43:34.092Z,57.03
2022-11-23T15:46:29.939Z,57.32
2022-11-23T15:48:59.640Z,57.42
2022-11-23T15:51:30.527Z,57.23
2022-11-23T15:54:00.703Z,57.31
2022-11-23T15:56:31.745Z,57.88
2022-11-23T15:59:03.144Z,59.05
2022-11-23T16:01:31.550Z,58.86
2022-11-23T16:04:04.485Z,59.98
2022-11-23T16:06:37.965Z,60.48
2022-11-23T16:09:57.183Z,60.88
2022-11-23T16:12:28.231Z,61.97
2022-11-23T16:14:58.992Z,62.87
2022-11-23T16:17:29.129Z,63.03
2022-11-23T16:19:58.821Z,63.79
2022-11-23T16:22:31.551Z,63.89
2022-11-23T16:25:06.833Z,64.23
2022-11-23T16:27:36.384Z,64.51
2022-11-23T16:30:05.364Z,65.16
2022-11-23T16:32:33.481Z,65.52
2022-11-23T16:35:20.087Z,65.75
2022-11-23T16:37:48.304Z,66.42
2022-11-23T16:40:18.133Z,66.91
2022-11-23T16:42:47.097Z,67.03
2022-11-23T16:45:15.217Z,67.36
2022-11-23T16:47:53.812Z,67.21
2022-11-23T16:50:21.988Z,67.08
2022-11-23T16:52:50.101Z,67.41
2022-11-23T16:55:19.816Z,67.70
2022-11-23T16:57:51.013Z,67.82
2022-11-23T17:00:21.223Z,67.85
2022-11-23T17:02:52.469Z,68.26
2022-11-23T17:05:24.624Z,67.80
2022-11-23T17:07:52.741Z,68.10
2022-11-23T17:10:22.249Z,68.35
2022-11-23T17:12:53.101Z,68.35
2022-11-23T17:15:23.245Z,68.42
2022-11-23T17:17:51.916Z,68.54
2022-11-23T17:20:20.303Z,68.98
2022-11-23T17:22:51.476Z,68.92
2022-11-23T17:25:20.228Z,69.01
2022-11-23T17:28:07.062Z,68.99
2022-11-23T17:30:37.477Z,69.24
2022-11-23T17:33:13.445Z,69.31
2022-11-23T17:35:42.002Z,69.57
2022-11-23T17:38:15.197Z,69.94
2022-11-23T17:40:43.501Z,69.59
2022-11-23T17:43:17.373Z,69.95
2022-11-23T17:45:46.145Z,69.95
2022-11-23T17:48:19.070Z,69.87
2022-11-23T17:50:47.476Z,70.16
2022-11-23T17:53:15.508Z,70.36
2022-11-23T17:55:44.117Z,70.42
2022-11-23T17:58:16.530Z,70.67
2022-11-23T18:00:44.521Z,70.90
2022-11-23T18:03:13.114Z,71.04
2022-11-23T18:05:41.489Z,71.28
2022-11-23T18:08:09.373Z,71.03
2022-11-23T18:10:37.686Z,71.09
2022-11-23T18:13:05.552Z,71.37
2022-11-23T18:15:34.930Z,71.49
2022-11-23T18:18:04.840Z,71.67
2022-11-23T18:20:33.090Z,71.37
2022-11-23T18:26:27.341Z,71.39
2022-11-23T18:42:33.986Z,71.13
2022-11-23T18:50:59.017Z,71.28
2022-11-23T19:04:09.719Z,71.62
2022-11-23T19:13:38.235Z,72.55
2022-11-23T19:17:18.362Z,71.92
2022-11-23T19:20:00.564Z,72.12
2022-11-23T19:22:34.800Z,72.30
2022-11-23T19:36:02.018Z,72.55
2022-11-23T19:46:00.121Z,72.73
2022-11-23T19:48:30.520Z,72.92
2022-11-23T19:51:02.310Z,73.13
2022-11-23T19:53:35.443Z,72.98
2022-11-23T19:56:07.710Z,72.99
2022-11-23T19:58:41.591Z,72.96
2022-11-23T20:01:12.581Z,72.96
2022-11-23T20:03:43.488Z,72.82
2022-11-23T20:06:18.068Z,72.81
2022-11-23T20:08:46.695Z,72.64
2022-11-23T20:11:18.622Z,72.79
2022-11-23T20:27:44.024Z,72.63
2022-11-23T20:35:05.007Z,72.94
2022-11-23T20:38:17.142Z,73.11
2022-11-23T20:41:15.526Z,73.21
2022-11-23T20:54:16.455Z,73.57
2022-11-23T20:56:46.741Z,73.49
2022-11-23T20:59:19.709Z,73.71
2022-11-23T21:01:47.814Z,73.51
2022-11-23T21:04:16.268Z,73.32
2022-11-23T21:07:16.253Z,73.48
2022-11-23T21:09:47.960Z,73.44
2022-11-23T21:12:33.687Z,73.54
2022-11-23T21:15:01.970Z,73.59
2022-11-23T21:18:03.502Z,73.38
2022-11-23T21:24:45.658Z,73.33
2022-11-23T21:27:16.149Z,73.56
2022-11-23T21:29:45.248Z,73.87
2022-11-23T21:32:14.645Z,73.85
2022-11-23T21:34:47.318Z,73.70
2022-11-23T21:37:15.422Z,73.89
2022-11-23T21:39:47.941Z,73.90
2022-11-23T21:42:25.456Z,73.82
2022-11-23T21:44:55.316Z,74.44
2022-11-23T21:47:27.325Z,74.45
2022-11-23T21:49:57.778Z,74.30
2022-11-23T21:53:02.804Z,74.58
2022-11-23T21:55:35.032Z,74.40
2022-11-23T21:58:07.452Z,74.62
2022-11-23T22:00:40.659Z,74.56
2022-11-23T22:03:09.062Z,74.67
2022-11-23T22:05:52.476Z,74.68
2022-11-23T22:08:42.921Z,74.55
2022-11-23T22:11:15.176Z,74.78
2022-11-23T22:13:48.383Z,74.96
2022-11-23T22:16:35.843Z,74.78
2022-11-23T22:19:08.655Z,74.72
2022-11-23T22:21:48.223Z,74.71
2022-11-23T22:24:35.020Z,74.83
2022-11-23T22:27:13.385Z,74.73
2022-11-23T22:30:01.407Z,74.83
2022-11-23T22:32:49.215Z,75.16
2022-11-23T22:35:18.369Z,74.91
2022-11-23T22:38:08.282Z,74.92
2022-11-23T22:40:49.288Z,74.77
2022-11-23T22:43:25.100Z,74.64
2022-11-23T22:46:05.695Z,74.69
2022-11-23T22:48:42.562Z,74.82
2022-11-23T22:51:20.925Z,75.03
2022-11-23T22:54:12.178Z,74.70
2022-11-23T23:00:25.739Z,74.48
2022-11-23T23:03:01.646Z,74.56
2022-11-23T23:05:46.810Z,74.42
2022-11-23T23:08:29.126Z,74.41
2022-11-23T23:12:02.850Z,75.06
2022-11-23T23:14:56.160Z,74.46
2022-11-23T23:18:19.432Z,74.62
2022-11-23T23:31:59.740Z,75.07
2022-11-23T23:34:53.366Z,75.51
2022-11-23T23:37:48.574Z,75.60
2022-11-23T23:41:29.296Z,75.61
2022-11-23T23:44:54.617Z,75.78
2022-11-23T23:48:05.134Z,76.01
2022-11-23T23:51:16.251Z,75.74
2022-11-23T23:54:16.336Z,76.14
